createdAt,value
2019-04-20T00:01:19.963Z,3.17
2019-04-20T00:03:46.765Z,3.67
2019-04-20T00:06:15.479Z,3.52
2019-04-20T00:09:11.841Z,3.40
2019-04-20T00:11:45.969Z,3.60
2019-04-20T00:14:11.184Z,3.58
2019-04-20T00:16:35.791Z,3.77
2019-04-20T00:19:05.858Z,3.67
2019-04-20T00:21:43.102Z,3.60
2019-04-20T00:24:20.055Z,3.62
2019-04-20T00:27:11.770Z,3.77
2019-04-20T00:29:35.465Z,4.00
2019-04-20T00:31:58.375Z,3.42
2019-04-20T00:34:24.107Z,3.60
2019-04-20T00:36:47.432Z,3.20
2019-04-20T00:39:17.197Z,3.85
2019-04-20T00:41:51.759Z,3.45
2019-04-20T00:44:24.252Z,3.60
2019-04-20T00:47:04.905Z,3.90
2019-04-20T00:49:32.189Z,3.90
2019-04-20T00:52:18.848Z,3.77
2019-04-20T00:54:20.584Z,3.62
2019-04-20T00:56:49.827Z,3.25
2019-04-20T00:59:32.326Z,3.37
2019-04-20T01:02:10.611Z,4.10
2019-04-20T01:04:46.205Z,3.50
2019-04-20T01:07:11.407Z,3.98
2019-04-20T01:09:43.388Z,3.35
2019-04-20T01:12:18.247Z,3.58
2019-04-20T01:14:51.403Z,3.27
2019-04-20T01:17:14.914Z,3.27
2019-04-20T01:19:43.741Z,3.83
2019-04-20T01:22:16.556Z,3.67
2019-04-20T01:24:46.284Z,4.28
2019-04-20T01:27:29.597Z,4.37
2019-04-20T01:29:49.403Z,3.80
2019-04-20T01:32:23.329Z,3.62
2019-04-20T01:34:57.642Z,3.58
2019-04-20T01:37:26.126Z,3.72
2019-04-20T01:39:50.194Z,4.12
2019-04-20T01:42:15.097Z,3.83
2019-04-20T01:44:47.332Z,3.98
2019-04-20T01:47:15.054Z,4.33
2019-04-20T01:49:49.697Z,4.10
2019-04-20T01:52:20.079Z,4.10
2019-04-20T01:55:10.257Z,4.62
2019-04-20T02:00:07.416Z,3.95
2019-04-20T02:02:34.412Z,4.40
2019-04-20T02:05:08.957Z,4.12
2019-04-20T02:07:40.045Z,4.15
2019-04-20T02:10:06.351Z,4.47
2019-04-20T02:12:35.695Z,4.12
2019-04-20T02:15:07.220Z,4.45
2019-04-20T02:17:41.832Z,4.37
2019-04-20T02:20:31.587Z,4.33
2019-04-20T02:22:51.594Z,4.08
2019-04-20T02:25:08.331Z,3.95
2019-04-20T02:27:45.606Z,3.90
2019-04-20T02:30:40.647Z,4.33
2019-04-20T02:33:27.387Z,5.03
2019-04-20T02:36:14.633Z,4.58
2019-04-20T02:41:30.056Z,4.62
2019-04-20T02:44:04.407Z,4.10
2019-04-20T02:46:24.700Z,4.78
2019-04-20T02:51:47.307Z,4.45
2019-04-20T02:54:18.776Z,4.47
2019-04-20T02:56:58.819Z,4.83
2019-04-20T03:01:55.362Z,4.58
2019-04-20T03:04:20.527Z,5.03
2019-04-20T03:06:54.820Z,4.25
2019-04-20T03:09:33.116Z,4.70
2019-04-20T03:12:08.211Z,4.50
2019-04-20T03:14:26.501Z,4.45
2019-04-20T03:17:04.356Z,4.70
2019-04-20T03:19:25.010Z,5.10
2019-04-20T03:22:04.159Z,4.87
2019-04-20T03:24:37.610Z,4.72
2019-04-20T03:27:00.415Z,4.35
2019-04-20T03:29:40.960Z,4.55
2019-04-20T03:37:27.034Z,4.03
2019-04-20T03:39:46.679Z,4.78
2019-04-20T03:42:00.937Z,5.15
2019-04-20T03:44:32.949Z,5.20
2019-04-20T03:47:06.336Z,4.60
2019-04-20T03:49:54.918Z,5.25
2019-04-20T03:52:27.774Z,5.03
2019-04-20T03:54:51.359Z,5.37
2019-04-20T03:57:38.321Z,4.80
2019-04-20T04:00:16.246Z,4.80
2019-04-20T04:03:06.157Z,5.37
2019-04-20T04:05:17.687Z,4.72
2019-04-20T04:07:41.544Z,4.65
2019-04-20T04:10:23.307Z,5.40
2019-04-20T04:13:29.865Z,4.62
2019-04-20T04:16:03.241Z,5.15
2019-04-20T04:18:36.840Z,4.78
2019-04-20T04:21:03.879Z,5.20
2019-04-20T04:23:45.843Z,4.95
2019-04-20T04:26:20.374Z,5.15
2019-04-20T04:28:43.820Z,4.90
2019-04-20T04:31:15.708Z,4.58
2019-04-20T04:34:02.681Z,5.17
2019-04-20T04:36:18.279Z,4.60
2019-04-20T04:38:56.073Z,4.40
2019-04-20T04:41:25.591Z,5.25
2019-04-20T04:43:49.839Z,5.08
2019-04-20T04:46:01.935Z,5.25
2019-04-20T04:48:35.605Z,5.28
2019-04-20T04:51:07.215Z,4.90
2019-04-20T04:53:46.809Z,5.28
2019-04-20T04:56:07.143Z,5.62
2019-04-20T04:58:31.974Z,5.50
2019-04-20T05:01:05.638Z,5.05
2019-04-20T05:03:57.705Z,5.62
2019-04-20T05:06:25.333Z,5.20
2019-04-20T05:08:41.704Z,5.33
2019-04-20T05:11:04.901Z,5.45
2019-04-20T05:13:41.977Z,5.60
2019-04-20T05:16:21.455Z,4.72
2019-04-20T05:18:57.958Z,5.00
2019-04-20T05:21:25.347Z,5.15
2019-04-20T05:23:53.514Z,5.20
2019-04-20T05:26:29.917Z,5.17
2019-04-20T05:28:51.427Z,4.87
2019-04-20T05:31:13.462Z,5.20
2019-04-20T05:34:10.852Z,5.03
2019-04-20T05:36:28.095Z,5.35
2019-04-20T05:39:10.351Z,5.42
2019-04-20T05:41:31.083Z,5.55
2019-04-20T05:43:59.476Z,5.08
2019-04-20T05:46:37.363Z,5.03
2019-04-20T05:49:08.931Z,5.33
2019-04-20T05:51:47.606Z,4.33
2019-04-20T05:54:09.874Z,5.37
2019-04-20T05:56:44.513Z,5.35
2019-04-20T05:59:07.010Z,5.03
2019-04-20T06:01:37.938Z,5.37
2019-04-20T06:04:02.729Z,5.75
2019-04-20T06:06:37.698Z,5.62
2019-04-20T06:11:44.777Z,4.80
2019-04-20T06:14:07.129Z,6.15
2019-04-20T06:16:50.101Z,5.62
2019-04-20T06:19:28.677Z,5.62
2019-04-20T06:21:57.603Z,6.62
2019-04-20T06:27:14.607Z,5.53
2019-04-20T06:29:31.279Z,5.10
2019-04-20T06:32:06.598Z,5.25
2019-04-20T06:34:46.592Z,6.03
2019-04-20T06:37:18.448Z,5.87
2019-04-20T06:39:40.711Z,5.35
2019-04-20T06:42:14.076Z,5.95
2019-04-20T06:44:48.230Z,6.10
2019-04-20T06:52:17.101Z,5.58
2019-04-20T06:54:53.956Z,6.12
2019-04-20T06:57:24.057Z,5.60
2019-04-20T06:59:55.040Z,5.83
2019-04-20T07:02:29.945Z,6.03
2019-04-20T07:04:55.576Z,5.90
2019-04-20T07:07:24.051Z,5.72
2019-04-20T07:12:27.324Z,5.67
2019-04-20T07:14:46.947Z,5.53
2019-04-20T07:17:39.443Z,6.05
2019-04-20T07:20:02.740Z,5.70
2019-04-20T07:25:08.051Z,6.03
2019-04-20T07:27:36.912Z,5.55
2019-04-20T07:30:07.967Z,5.80
2019-04-20T07:32:46.132Z,6.15
2019-04-20T07:35:09.865Z,5.55
2019-04-20T07:38:07.115Z,5.87
2019-04-20T07:40:10.423Z,6.20
2019-04-20T07:42:55.198Z,5.12
2019-04-20T07:45:16.857Z,5.80
2019-04-20T07:47:45.679Z,5.22
2019-04-20T07:50:09.123Z,5.53
2019-04-20T07:52:33.887Z,6.00
2019-04-20T07:57:39.156Z,5.70
2019-04-20T08:00:16.294Z,6.28
2019-04-20T08:03:13.065Z,6.80
2019-04-20T08:05:33.491Z,6.28
2019-04-20T08:08:08.322Z,6.70
2019-04-20T08:10:33.766Z,6.85
2019-04-20T08:13:17.383Z,6.72
2019-04-20T08:18:13.578Z,7.33
2019-04-20T08:20:51.116Z,7.33
2019-04-20T08:23:12.318Z,6.75
2019-04-20T08:25:39.018Z,6.70
2019-04-20T08:27:55.114Z,6.72
2019-04-20T08:30:53.788Z,6.15
2019-04-20T08:36:16.856Z,6.90
2019-04-20T08:41:15.283Z,7.30
2019-04-20T08:43:57.271Z,7.67
2019-04-20T08:46:21.924Z,7.28
2019-04-20T08:48:50.977Z,6.92
2019-04-20T08:51:20.930Z,6.90
2019-04-20T08:54:08.423Z,7.37
2019-04-20T08:56:31.707Z,7.97
2019-04-20T08:58:51.208Z,8.10
2019-04-20T09:01:28.260Z,8.50
2019-04-20T09:04:02.279Z,7.75
2019-04-20T09:06:36.482Z,8.03
2019-04-20T09:09:11.646Z,7.47
2019-04-20T09:11:47.166Z,7.47
2019-04-20T09:13:58.728Z,8.28
2019-04-20T09:16:32.343Z,8.10
2019-04-20T09:19:03.651Z,7.78
2019-04-20T09:21:36.874Z,8.13
2019-04-20T09:24:21.754Z,7.97
2019-04-20T09:26:43.186Z,8.18
2019-04-20T09:29:09.429Z,7.40
2019-04-20T09:31:43.655Z,8.50
2019-04-20T09:34:16.288Z,8.88
2019-04-20T09:37:12.921Z,7.92
2019-04-20T09:40:00.875Z,8.20
2019-04-20T09:42:08.471Z,7.78
2019-04-20T09:44:42.625Z,8.43
2019-04-20T09:47:09.172Z,7.75
2019-04-20T09:50:08.961Z,7.60
2019-04-20T09:52:48.018Z,8.13
2019-04-20T09:55:10.770Z,7.53
2019-04-20T09:57:45.533Z,7.08
2019-04-20T10:00:16.757Z,7.83
2019-04-20T10:02:33.092Z,7.33
2019-04-20T10:05:00.060Z,6.90
2019-04-20T10:07:33.542Z,7.60
2019-04-20T10:09:59.928Z,8.58
2019-04-20T10:12:29.407Z,8.13
2019-04-20T10:15:04.164Z,8.20
2019-04-20T10:17:31.376Z,7.60
2019-04-20T10:20:04.577Z,7.33
2019-04-20T10:22:28.785Z,7.70
2019-04-20T10:24:57.916Z,7.58
2019-04-20T10:27:28.397Z,6.45
2019-04-20T10:29:58.443Z,6.92
2019-04-20T10:32:34.172Z,7.30
2019-04-20T10:34:58.840Z,7.15
2019-04-20T10:37:29.394Z,7.17
2019-04-20T10:39:58.529Z,7.25
2019-04-20T10:42:28.140Z,7.03
2019-04-20T10:44:58.938Z,6.85
2019-04-20T10:47:27.322Z,7.42
2019-04-20T10:49:58.775Z,7.37
2019-04-20T10:52:27.864Z,6.60
2019-04-20T10:54:56.647Z,6.87
2019-04-20T10:57:25.809Z,6.60
2019-04-20T10:59:55.574Z,6.30
2019-04-20T11:02:24.266Z,6.70
2019-04-20T11:04:54.796Z,6.53
2019-04-20T11:07:23.698Z,5.70
2019-04-20T11:10:04.401Z,5.90
2019-04-20T11:12:22.607Z,6.00
2019-04-20T11:14:52.347Z,5.95
2019-04-20T11:17:22.342Z,6.22
2019-04-20T11:19:51.568Z,7.12
2019-04-20T11:22:20.302Z,5.97
2019-04-20T11:24:50.165Z,8.23
2019-04-20T11:27:18.793Z,5.80
2019-04-20T11:29:47.416Z,6.12
2019-04-20T11:32:16.288Z,7.62
2019-04-20T11:34:45.390Z,6.87
2019-04-20T11:37:15.276Z,6.20
2019-04-20T11:39:45.316Z,5.53
2019-04-20T11:42:14.051Z,6.72
2019-04-20T11:44:44.750Z,6.12
2019-04-20T11:47:14.702Z,5.90
2019-04-20T11:49:43.732Z,6.85
2019-04-20T11:52:13.644Z,6.47
2019-04-20T11:54:42.719Z,6.80
2019-04-20T11:57:11.655Z,6.72
2019-04-20T11:59:41.207Z,6.22
2019-04-20T12:02:22.460Z,6.37
2019-04-20T12:04:51.968Z,6.42
2019-04-20T12:07:17.542Z,5.97
2019-04-20T12:09:47.327Z,6.15
2019-04-20T12:12:27.268Z,7.15
2019-04-20T12:14:46.470Z,7.97
2019-04-20T12:17:15.580Z,10.90
2019-04-20T12:19:45.897Z,8.05
2019-04-20T12:22:15.942Z,7.87
2019-04-20T12:24:44.613Z,7.08
2019-04-20T12:27:14.535Z,8.75
2019-04-20T12:29:43.650Z,7.75
2019-04-20T12:32:12.893Z,6.80
2019-04-20T12:34:41.592Z,6.97
2019-04-20T12:37:11.261Z,6.47
2019-04-20T12:39:39.924Z,7.40
2019-04-20T12:42:09.613Z,7.20
2019-04-20T12:44:39.642Z,7.72
2019-04-20T12:47:09.912Z,7.33
2019-04-20T12:49:38.674Z,8.00
2019-04-20T12:52:08.421Z,8.08
2019-04-20T12:54:40.818Z,7.65
2019-04-20T12:57:08.816Z,7.42
2019-04-20T12:59:42.296Z,6.90
2019-04-20T13:02:11.282Z,7.08
2019-04-20T13:04:41.450Z,7.87
2019-04-20T13:07:10.508Z,7.20
2019-04-20T13:09:46.357Z,5.67
2019-04-20T13:12:17.431Z,6.85
2019-04-20T13:15:00.280Z,6.00
2019-04-20T13:17:30.116Z,5.87
2019-04-20T13:19:59.480Z,6.47
2019-04-20T13:22:28.741Z,8.58
2019-04-20T13:24:57.391Z,7.65
2019-04-20T13:27:27.041Z,7.85
2019-04-20T13:29:56.027Z,7.42
2019-04-20T13:32:25.679Z,6.75
2019-04-20T13:34:56.152Z,7.40
2019-04-20T13:37:26.149Z,6.70
2019-04-20T13:39:56.585Z,6.97
2019-04-20T13:42:29.466Z,8.30
2019-04-20T13:44:57.001Z,7.30
2019-04-20T13:47:28.099Z,7.65
2019-04-20T13:49:56.884Z,6.87
2019-04-20T13:52:26.819Z,7.22
2019-04-20T13:54:55.953Z,6.78
2019-04-20T13:57:42.066Z,6.65
2019-04-20T14:00:24.168Z,7.25
2019-04-20T14:02:54.771Z,7.28
2019-04-20T14:05:35.056Z,6.75
2019-04-20T14:08:07.442Z,6.55
2019-04-20T14:10:37.534Z,5.95
2019-04-20T14:13:12.115Z,6.78
2019-04-20T14:15:37.430Z,6.65
2019-04-20T14:18:07.151Z,8.10
2019-04-20T14:20:38.084Z,6.20
2019-04-20T14:23:07.458Z,5.45
2019-04-20T14:25:36.697Z,6.08
2019-04-20T14:28:06.891Z,7.17
2019-04-20T14:30:35.741Z,6.53
2019-04-20T14:33:05.217Z,6.50
2019-04-20T14:35:36.800Z,7.17
2019-04-20T14:38:05.883Z,5.70
2019-04-20T14:40:34.649Z,5.40
2019-04-20T14:43:03.498Z,5.78
2019-04-20T14:45:32.618Z,5.62
2019-04-20T14:48:01.649Z,5.50
2019-04-20T14:50:31.658Z,5.40
2019-04-20T14:53:01.853Z,4.97
2019-04-20T14:55:31.360Z,4.70
2019-04-20T14:58:01.804Z,5.40
2019-04-20T15:00:58.606Z,6.05
2019-04-20T15:03:52.010Z,6.45
2019-04-20T15:06:18.242Z,6.60
2019-04-20T15:08:48.273Z,5.78
2019-04-20T15:11:17.031Z,5.50
2019-04-20T15:13:46.882Z,5.30
2019-04-20T15:16:16.940Z,5.85
2019-04-20T15:18:49.088Z,5.40
2019-04-20T15:21:25.375Z,5.60
2019-04-20T15:23:55.447Z,6.37
2019-04-20T15:26:24.429Z,5.97
2019-04-20T15:28:54.465Z,6.10
2019-04-20T15:31:24.347Z,7.00
2019-04-20T15:33:52.927Z,6.33
2019-04-20T15:36:22.172Z,6.12
2019-04-20T15:38:51.388Z,5.72
2019-04-20T15:41:20.821Z,5.53
2019-04-20T15:43:51.131Z,5.65
2019-04-20T15:46:21.354Z,5.67
2019-04-20T15:48:50.293Z,6.33
2019-04-20T15:51:19.532Z,5.95
2019-04-20T15:53:49.525Z,5.10
2019-04-20T15:56:18.654Z,6.12
2019-04-20T15:58:48.397Z,5.12
2019-04-20T16:01:20.537Z,4.55
2019-04-20T16:03:51.154Z,5.28
2019-04-20T16:06:21.133Z,5.55
2019-04-20T16:08:52.309Z,5.83
2019-04-20T16:11:21.555Z,5.55
2019-04-20T16:13:53.737Z,5.60
2019-04-20T16:16:23.800Z,5.47
2019-04-20T16:18:52.806Z,5.15
2019-04-20T16:21:26.264Z,4.97
2019-04-20T16:27:15.885Z,6.10
2019-04-20T16:29:44.690Z,5.62
2019-04-20T16:32:32.606Z,5.90
2019-04-20T16:37:30.489Z,5.92
2019-04-20T16:40:00.685Z,4.97
2019-04-20T16:42:29.974Z,5.67
2019-04-20T16:44:59.164Z,5.67
2019-04-20T16:47:28.140Z,5.90
2019-04-20T16:49:57.120Z,5.60
2019-04-20T16:52:26.282Z,5.42
2019-04-20T16:54:55.613Z,5.35
2019-04-20T16:57:25.558Z,6.00
2019-04-20T16:59:56.434Z,6.22
2019-04-20T17:02:24.614Z,6.80
2019-04-20T17:04:54.885Z,6.80
2019-04-20T17:07:25.083Z,7.10
2019-04-20T17:09:54.041Z,6.05
2019-04-20T17:12:23.875Z,6.60
2019-04-20T17:14:53.706Z,6.67
2019-04-20T17:17:22.457Z,6.35
2019-04-20T17:19:51.497Z,6.28
2019-04-20T17:22:21.390Z,6.40
2019-04-20T17:24:51.533Z,6.30
2019-04-20T17:27:28.980Z,5.97
2019-04-20T17:30:19.606Z,5.40
2019-04-20T17:32:47.496Z,5.92
2019-04-20T17:35:28.234Z,5.58
2019-04-20T17:37:49.595Z,5.50
2019-04-20T17:40:34.037Z,6.22
2019-04-20T17:43:00.066Z,6.72
2019-04-20T17:45:28.729Z,5.95
2019-04-20T17:48:04.491Z,7.00
2019-04-20T17:50:37.303Z,11.25
2019-04-20T17:53:07.439Z,7.67
2019-04-20T17:55:41.673Z,6.20
2019-04-20T17:58:12.181Z,6.30
2019-04-20T18:00:45.555Z,6.70
2019-04-20T18:03:52.809Z,6.87
2019-04-20T18:08:45.504Z,6.45
2019-04-20T18:11:03.027Z,5.97
2019-04-20T18:13:27.349Z,6.40
2019-04-20T18:16:22.427Z,6.42
2019-04-20T18:18:50.395Z,6.33
2019-04-20T18:21:10.790Z,6.00
2019-04-20T18:23:43.480Z,5.85
2019-04-20T18:26:31.877Z,5.50
2019-04-20T18:29:06.149Z,7.12
2019-04-20T18:31:13.499Z,6.83
2019-04-20T18:33:44.370Z,7.33
2019-04-20T18:36:22.286Z,6.65
2019-04-20T18:38:51.955Z,5.67
2019-04-20T18:41:25.652Z,6.42
2019-04-20T18:43:48.637Z,5.78
2019-04-20T18:46:25.947Z,5.20
2019-04-20T18:49:06.928Z,5.22
2019-04-20T18:51:15.490Z,5.67
2019-04-20T18:53:46.840Z,5.83
2019-04-20T18:56:19.023Z,5.87
2019-04-20T18:58:45.200Z,6.45
2019-04-20T19:01:14.974Z,6.10
2019-04-20T19:03:47.268Z,5.90
2019-04-20T19:06:14.191Z,6.17
2019-04-20T19:08:48.003Z,7.30
2019-04-20T19:11:16.540Z,6.83
2019-04-20T19:13:47.827Z,6.62
2019-04-20T19:16:30.686Z,5.85
2019-04-20T19:19:06.608Z,5.83
2019-04-20T19:21:29.071Z,6.25
2019-04-20T19:24:07.727Z,6.33
2019-04-20T19:26:32.085Z,5.80
2019-04-20T19:29:11.077Z,5.83
2019-04-20T19:31:44.868Z,5.60
2019-04-20T19:34:19.028Z,6.08
2019-04-20T19:36:41.328Z,5.65
2019-04-20T19:39:21.373Z,5.72
2019-04-20T19:41:49.811Z,6.28
2019-04-20T19:44:19.202Z,6.40
2019-04-20T19:47:01.655Z,5.45
2019-04-20T19:49:23.026Z,6.10
2019-04-20T19:52:13.645Z,7.45
2019-04-20T19:54:35.560Z,6.33
2019-04-20T19:56:57.733Z,6.80
2019-04-20T19:59:23.451Z,6.58
2019-04-20T20:01:45.355Z,6.28
2019-04-20T20:04:15.649Z,6.33
2019-04-20T20:06:50.606Z,6.50
2019-04-20T20:09:16.462Z,7.05
2019-04-20T20:11:46.724Z,6.05
2019-04-20T20:14:19.503Z,6.20
2019-04-20T20:17:06.713Z,6.90
2019-04-20T20:19:32.319Z,7.67
2019-04-20T20:22:04.572Z,7.95
2019-04-20T20:24:19.569Z,7.80
2019-04-20T20:26:56.731Z,6.92
2019-04-20T20:29:30.454Z,6.50
2019-04-20T20:32:08.464Z,7.03
2019-04-20T20:34:31.079Z,6.28
2019-04-20T20:37:00.546Z,6.78
2019-04-20T20:39:29.550Z,6.78
2019-04-20T20:42:08.990Z,6.53
2019-04-20T20:44:37.753Z,5.92
2019-04-20T20:47:12.894Z,5.90
2019-04-20T20:50:01.410Z,6.45
2019-04-20T20:52:21.840Z,6.30
2019-04-20T20:54:47.692Z,6.28
2019-04-20T20:57:09.649Z,6.80
2019-04-20T20:59:46.772Z,6.85
2019-04-20T21:02:12.456Z,6.67
2019-04-20T21:04:35.388Z,7.87
2019-04-20T21:07:08.707Z,6.92
2019-04-20T21:09:37.627Z,7.03
2019-04-20T21:12:10.902Z,6.95
2019-04-20T21:14:39.121Z,5.95
2019-04-20T21:17:13.158Z,6.95
2019-04-20T21:19:58.017Z,7.25
2019-04-20T21:22:17.006Z,6.90
2019-04-20T21:24:47.042Z,7.03
2019-04-20T21:27:19.832Z,6.75
2019-04-20T21:29:51.456Z,7.15
2019-04-20T21:32:19.562Z,6.78
2019-04-20T21:34:53.346Z,7.40
2019-04-20T21:37:22.349Z,6.70
2019-04-20T21:39:57.994Z,7.80
2019-04-20T21:42:26.693Z,7.70
2019-04-20T21:45:04.585Z,8.03
2019-04-20T21:50:34.639Z,7.90
2019-04-20T21:52:53.382Z,7.83
2019-04-20T21:55:21.664Z,7.70
2019-04-20T21:57:53.922Z,7.30
2019-04-20T22:00:37.567Z,8.45
2019-04-20T22:03:05.848Z,8.18
2019-04-20T22:05:32.588Z,8.53
2019-04-20T22:08:05.538Z,7.05
2019-04-20T22:10:32.971Z,7.45
2019-04-20T22:13:03.182Z,8.03
2019-04-20T22:15:35.004Z,8.03
2019-04-20T22:18:06.843Z,8.50
2019-04-20T22:20:42.458Z,8.20
2019-04-20T22:23:17.213Z,7.08
2019-04-20T22:25:53.969Z,7.58
2019-04-20T22:28:05.315Z,7.35
2019-04-20T22:30:35.818Z,7.10
2019-04-20T22:33:06.307Z,8.83
2019-04-20T22:35:42.806Z,8.20
2019-04-20T22:38:12.565Z,7.78
2019-04-20T22:40:40.783Z,7.80
2019-04-20T22:43:10.385Z,7.37
2019-04-20T22:45:45.523Z,7.60
2019-04-20T22:48:29.174Z,7.58
2019-04-20T22:51:14.300Z,7.22
2019-04-20T22:53:38.873Z,7.70
2019-04-20T22:56:19.732Z,7.00
2019-04-20T22:58:40.523Z,7.22
2019-04-20T23:01:04.606Z,7.03
2019-04-20T23:03:30.562Z,8.48
2019-04-20T23:06:00.660Z,7.83
2019-04-20T23:08:30.707Z,8.15
2019-04-20T23:10:59.701Z,7.80
2019-04-20T23:13:35.109Z,7.08
2019-04-20T23:16:01.958Z,7.70
2019-04-20T23:18:29.859Z,6.83
2019-04-20T23:21:03.700Z,6.55
2019-04-20T23:23:30.960Z,8.00
2019-04-20T23:26:01.068Z,7.33
2019-04-20T23:28:31.222Z,8.25
2019-04-20T23:31:06.509Z,8.70
2019-04-20T23:33:30.173Z,7.30
2019-04-20T23:36:02.406Z,7.25
2019-04-20T23:38:29.064Z,7.55
2019-04-20T23:40:57.718Z,7.75
2019-04-20T23:43:31.547Z,8.13
2019-04-20T23:46:03.291Z,7.85
2019-04-20T23:48:50.408Z,8.23
2019-04-20T23:51:43.782Z,8.03
2019-04-20T23:53:58.623Z,7.55
2019-04-20T23:56:22.041Z,7.08
2019-04-20T23:58:53.417Z,7.85
